Time;durP1;ratioP1;P1;durP2;ratioP2;P2;SDS_P1;SDS_P2;PMS_P1;PMS_P2;Temp;Humidity;BMP_temperature;BMP_pressure;BME280_temperature;BME280_humidity;BME280_pressure;Samples;Min_cycle;Max_cycle;Signal;HPM_P1;HPM_P2
2022/11/27 00:02:07;;;;;;;;;;;;;;;4.35;100.00;100435.94;10116770;23;20011;-73
2022/11/27 00:06:11;;;;;;;;;;;;;;;4.36;100.00;100435.09;10145325;23;20591;-74
2022/11/27 00:10:12;;;;;;;;;;;;;;;4.37;100.00;100431.72;10169783;23;20273;-74
2022/11/27 00:14:15;;;;;;;;;;;;;;;4.40;100.00;100439.53;10167264;23;20063;-73
2022/11/27 00:18:17;;;;;;;;;;;;;;;4.41;100.00;100455.00;10162215;23;19925;-73
2022/11/27 00:22:18;;;;;;;;;;;;;;;4.45;100.00;100445.72;10119500;23;20249;-73
2022/11/27 00:26:20;;;;;;;;;;;;;;;4.44;100.00;100442.25;10170815;23;19967;-73
2022/11/27 00:30:21;;;;;;;;;;;;;;;4.45;100.00;100435.44;10144343;23;20285;-73
2022/11/27 00:34:22;;;;;;;;;;;;;;;4.46;100.00;100444.91;10161828;23;19924;-74
2022/11/27 00:38:24;;;;;;;;;;;;;;;4.48;100.00;100432.97;10190810;23;19966;-73
2022/11/27 00:42:25;;;;;;;;;;;;;;;4.51;100.00;100439.13;10191884;23;19932;-73
2022/11/27 00:46:28;;;;;;;;;;;;;;;4.53;100.00;100439.16;10215766;23;20003;-73
2022/11/27 00:50:31;;;;;;;;;;;;;;;4.55;100.00;100450.38;10216233;23;19928;-73
2022/11/27 00:54:32;;;;;;;;;;;;;;;4.55;100.00;100435.84;10193550;23;20331;-73
2022/11/27 00:58:34;;;;;;;;;;;;;;;4.58;100.00;100442.78;10217115;23;19995;-74
2022/11/27 01:02:35;;;;;;;;;;;;;;;4.59;100.00;100441.97;10188140;23;20007;-74
2022/11/27 01:06:37;;;;;;;;;;;;;;;4.62;100.00;100430.91;10192191;23;19928;-73
2022/11/27 01:10:38;;;;;;;;;;;;;;;4.65;100.00;100437.03;10214958;23;19955;-74
2022/11/27 01:14:39;;;;;;;;;;;;;;;4.66;100.00;100425.91;10216597;23;19934;-74
2022/11/27 01:18:42;;;;;;;;;;;;;;;4.69;100.00;100420.91;10207650;23;19966;-73
2022/11/27 01:22:44;;;;;;;;;;;;;;;4.69;100.00;100422.59;10221723;23;19924;-74
2022/11/27 01:26:45;;;;;;;;;;;;;;;4.71;100.00;100413.25;10220941;23;20434;-74
2022/11/27 01:30:46;;;;;;;;;;;;;;;4.73;100.00;100414.16;10213798;23;19975;-74
2022/11/27 01:34:48;;;;;;;;;;;;;;;4.75;100.00;100407.38;10220964;23;19932;-73
2022/11/27 01:38:49;;;;;;;;;;;;;;;4.77;100.00;100404.03;10195414;23;19995;-74
2022/11/27 01:42:50;;;;;;;;;;;;;;;4.78;100.00;100399.75;10219225;23;19987;-74
2022/11/27 01:47:13;;;;;;;;;;;;;;;4.76;100.00;100394.56;10225487;23;20006;-73
2022/11/27 01:51:15;;;;;;;;;;;;;;;4.72;100.00;100394.41;10239333;23;19920;-74
2022/11/27 01:55:26;;;;;;;;;;;;;;;4.72;100.00;100382.41;10244697;23;20109;-73
2022/11/27 01:59:28;;;;;;;;;;;;;;;4.74;100.00;100380.78;10269277;23;19924;-74
2022/11/27 02:03:29;;;;;;;;;;;;;;;4.73;100.00;100363.59;10193335;23;20282;-73
2022/11/27 02:07:30;;;;;;;;;;;;;;;4.75;100.00;100361.06;10193484;23;20007;-74
2022/11/27 02:11:41;;;;;;;;;;;;;;;4.79;100.00;100360.34;10215651;23;19924;-74
2022/11/27 02:15:47;;;;;;;;;;;;;;;4.77;100.00;100352.56;10212586;23;19975;-73
2022/11/27 02:19:54;;;;;;;;;;;;;;;4.78;100.00;100346.59;10218312;23;20469;-74
2022/11/27 02:24:05;;;;;;;;;;;;;;;4.78;100.00;100336.31;10193208;23;20619;-74
2022/11/27 02:28:19;;;;;;;;;;;;;;;4.78;100.00;100333.75;10217789;23;20279;-73
2022/11/27 02:32:56;;;;;;;;;;;;;;;4.81;100.00;100330.38;10212908;23;20088;-73
2022/11/27 02:37:16;;;;;;;;;;;;;;;4.81;100.00;100310.69;10026778;23;20063;-73
2022/11/27 02:41:24;;;;;;;;;;;;;;;4.83;100.00;100315.88;10241226;23;19956;-73
2022/11/27 02:45:31;;;;;;;;;;;;;;;4.85;100.00;100312.56;10215167;23;19968;-73
2022/11/27 02:49:34;;;;;;;;;;;;;;;4.89;100.00;100310.94;10215000;23;19924;-74
2022/11/27 02:53:41;;;;;;;;;;;;;;;4.93;100.00;100306.78;10238815;23;19920;-73
2022/11/27 02:57:44;;;;;;;;;;;;;;;4.94;100.00;100323.97;10215787;23;19924;-73
2022/11/27 03:01:50;;;;;;;;;;;;;;;4.95;100.00;100312.84;10226899;23;19952;-73
2022/11/27 03:05:55;;;;;;;;;;;;;;;4.96;100.00;100312.00;10224811;23;20409;-73
2022/11/27 03:09:59;;;;;;;;;;;;;;;4.97;100.00;100312.06;10199446;23;19924;-73
2022/11/27 03:14:04;;;;;;;;;;;;;;;4.99;100.00;100294.97;10200887;23;20290;-73
2022/11/27 03:18:12;;;;;;;;;;;;;;;4.98;100.00;100294.91;10215809;23;19924;-74
2022/11/27 03:22:15;;;;;;;;;;;;;;;4.96;100.00;100299.16;10200578;23;20259;-74
2022/11/27 03:26:16;;;;;;;;;;;;;;;4.99;100.00;100296.66;10227062;23;20383;-73
2022/11/27 03:30:17;;;;;;;;;;;;;;;4.97;100.00;100296.63;10221643;23;19978;-74
2022/11/27 03:34:19;;;;;;;;;;;;;;;4.97;100.00;100291.47;10242184;23;20015;-73
2022/11/27 03:38:20;;;;;;;;;;;;;;;5.00;100.00;100289.00;10241889;23;20359;-73
2022/11/27 03:42:29;;;;;;;;;;;;;;;5.00;100.00;100288.13;10216169;23;19959;-74
2022/11/27 03:46:38;;;;;;;;;;;;;;;5.02;100.00;100297.63;10212611;23;19924;-73
2022/11/27 03:50:40;;;;;;;;;;;;;;;5.02;100.00;100282.19;10241449;23;20232;-73
2022/11/27 03:54:53;;;;;;;;;;;;;;;5.03;100.00;100280.53;10217689;23;20287;-74
2022/11/27 03:58:59;;;;;;;;;;;;;;;5.01;99.90;100269.28;10241463;23;20062;-73
2022/11/27 04:03:01;;;;;;;;;;;;;;;4.98;100.00;100249.47;10249314;23;19928;-73
2022/11/27 04:07:03;;;;;;;;;;;;;;;4.97;99.79;100252.88;10220453;23;20011;-73
2022/11/27 04:11:04;;;;;;;;;;;;;;;4.97;99.92;100260.59;10216566;23;19920;-73
2022/11/27 04:15:06;;;;;;;;;;;;;;;4.96;100.00;100266.56;10216115;23;20369;-73
2022/11/27 04:19:08;;;;;;;;;;;;;;;4.93;99.80;100276.78;10219040;23;19982;-73
2022/11/27 04:23:10;;;;;;;;;;;;;;;4.93;99.60;100278.47;10220529;23;19982;-74
2022/11/27 04:27:11;;;;;;;;;;;;;;;4.94;99.57;100291.38;10220547;23;19954;-74
2022/11/27 04:31:12;;;;;;;;;;;;;;;4.96;99.69;100274.28;10188932;23;20602;-74
2022/11/27 04:35:14;;;;;;;;;;;;;;;4.96;99.43;100276.00;10217735;23;20394;-73
2022/11/27 04:39:15;;;;;;;;;;;;;;;4.97;99.50;100285.47;10219980;23;20015;-73
2022/11/27 04:43:16;;;;;;;;;;;;;;;4.97;99.63;100288.03;10219536;23;19924;-73
2022/11/27 04:47:18;;;;;;;;;;;;;;;4.95;99.19;100267.41;10229817;23;19967;-73
2022/11/27 04:51:19;;;;;;;;;;;;;;;4.93;99.20;100263.03;10241599;23;19928;-73
2022/11/27 04:55:21;;;;;;;;;;;;;;;4.95;99.51;100259.69;10243642;23;19924;-73
2022/11/27 04:59:22;;;;;;;;;;;;;;;4.93;99.05;100256.19;10244388;23;19924;-73
2022/11/27 05:03:24;;;;;;;;;;;;;;;4.93;99.45;100253.59;10220577;23;19932;-74
2022/11/27 05:07:25;;;;;;;;;;;;;;;4.94;98.98;100254.47;10222760;23;19946;-73
2022/11/27 05:11:27;;;;;;;;;;;;;;;4.91;99.21;100251.81;10222545;23;19925;-73
2022/11/27 05:15:28;;;;;;;;;;;;;;;4.90;98.35;100247.50;10190289;23;19966;-73
2022/11/27 05:19:30;;;;;;;;;;;;;;;4.87;98.19;100237.13;10221037;23;19920;-73
2022/11/27 05:23:32;;;;;;;;;;;;;;;4.85;98.07;100217.34;10222209;23;20008;-73
2022/11/27 05:27:33;;;;;;;;;;;;;;;4.84;98.36;100209.56;10195106;23;19954;-73
2022/11/27 05:31:35;;;;;;;;;;;;;;;4.82;97.73;100208.63;10225027;23;20194;-73
2022/11/27 05:35:37;;;;;;;;;;;;;;;4.80;97.79;100208.59;10241703;23;19947;-73
2022/11/27 05:39:38;;;;;;;;;;;;;;;4.79;97.08;100226.56;10243605;23;20514;-73
2022/11/27 05:43:40;;;;;;;;;;;;;;;4.77;97.45;100226.50;10244320;23;20173;-74
2022/11/27 05:47:42;;;;;;;;;;;;;;;4.76;97.15;100237.63;10237781;23;20636;-73
2022/11/27 05:51:43;;;;;;;;;;;;;;;4.71;97.19;100249.47;10219074;23;19920;-74
2022/11/27 05:55:51;;;;;;;;;;;;;;;4.73;97.47;100229.81;10220826;23;19995;-73
2022/11/27 05:59:53;;;;;;;;;;;;;;;4.73;97.74;100216.97;10246275;23;19931;-74
2022/11/27 06:03:54;;;;;;;;;;;;;;;4.75;97.50;100205.00;10238829;23;19935;-73
2022/11/27 06:07:55;;;;;;;;;;;;;;;4.73;97.41;100183.50;10244833;23;19985;-74
2022/11/27 06:11:57;;;;;;;;;;;;;;;4.72;97.54;100179.19;10244299;23;19947;-74
2022/11/27 06:16:02;;;;;;;;;;;;;;;4.72;97.33;100180.91;10237123;23;19924;-74
2022/11/27 06:20:04;;;;;;;;;;;;;;;4.70;97.71;100169.69;10217862;23;20031;-73
2022/11/27 06:24:05;;;;;;;;;;;;;;;4.70;97.45;100186.00;10246045;23;19935;-73
2022/11/27 06:28:07;;;;;;;;;;;;;;;4.72;97.24;100194.63;10242795;23;20208;-73
2022/11/27 06:32:08;;;;;;;;;;;;;;;4.74;97.42;100186.97;10227144;23;19928;-74
2022/11/27 06:36:10;;;;;;;;;;;;;;;4.72;97.47;100197.19;10221189;23;19924;-73
2022/11/27 06:40:11;;;;;;;;;;;;;;;4.71;97.76;100213.47;10220127;23;19924;-73
2022/11/27 06:44:13;;;;;;;;;;;;;;;4.74;97.74;100225.53;10218667;23;19928;-74
2022/11/27 06:48:14;;;;;;;;;;;;;;;4.74;97.94;100216.13;10216325;23;19940;-73
2022/11/27 06:52:15;;;;;;;;;;;;;;;4.76;97.95;100182.72;10221187;23;20023;-73
2022/11/27 06:56:18;;;;;;;;;;;;;;;4.76;97.72;100183.59;10220407;23;19955;-73
2022/11/27 07:00:19;;;;;;;;;;;;;;;4.73;98.37;100170.66;10209997;23;20416;-73
2022/11/27 07:04:21;;;;;;;;;;;;;;;4.75;98.29;100158.72;10216935;23;19943;-73
2022/11/27 07:08:22;;;;;;;;;;;;;;;4.75;98.30;100166.44;10217682;23;20031;-73
2022/11/27 07:12:23;;;;;;;;;;;;;;;4.79;98.36;100157.97;10219376;23;19928;-73
2022/11/27 07:16:25;;;;;;;;;;;;;;;4.81;98.64;100150.28;10197392;23;19939;-75
2022/11/27 07:20:27;;;;;;;;;;;;;;;4.83;98.40;100131.50;10232100;23;19924;-75
2022/11/27 07:24:28;;;;;;;;;;;;;;;4.84;98.19;100130.69;10257244;23;19928;-76
2022/11/27 07:28:30;;;;;;;;;;;;;;;4.87;98.15;100126.47;10229534;23;20603;-75
2022/11/27 07:32:31;;;;;;;;;;;;;;;4.88;98.00;100128.22;10228700;23;20266;-75
2022/11/27 07:36:33;;;;;;;;;;;;;;;4.90;98.18;100137.72;10226475;23;19965;-75
2022/11/27 07:40:36;;;;;;;;;;;;;;;4.96;98.05;100137.91;10227030;23;19982;-75
2022/11/27 07:44:38;;;;;;;;;;;;;;;4.98;97.93;100141.38;10227586;23;19924;-76
2022/11/27 07:48:40;;;;;;;;;;;;;;;5.00;98.15;100138.84;10226261;23;20322;-75
2022/11/27 07:52:41;;;;;;;;;;;;;;;5.01;97.66;100141.47;10227457;23;19994;-75
2022/11/27 07:56:42;;;;;;;;;;;;;;;5.03;97.46;100137.28;10202535;23;20065;-75
2022/11/27 08:00:44;;;;;;;;;;;;;;;5.05;97.46;100132.16;10197907;23;19925;-74
2022/11/27 08:04:45;;;;;;;;;;;;;;;5.06;97.46;100127.06;10220659;23;19924;-75
2022/11/27 08:08:47;;;;;;;;;;;;;;;5.09;97.32;100123.69;10219821;23;19924;-75
2022/11/27 08:12:48;;;;;;;;;;;;;;;5.12;97.67;100118.63;10194524;23;20315;-75
2022/11/27 08:16:50;;;;;;;;;;;;;;;5.15;97.47;100117.03;10214664;23;20315;-75
2022/11/27 08:20:51;;;;;;;;;;;;;;;5.19;97.72;100112.81;10220156;23;20043;-76
2022/11/27 08:24:52;;;;;;;;;;;;;;;5.20;97.16;100117.16;10222903;23;20643;-75
2022/11/27 08:28:54;;;;;;;;;;;;;;;5.25;97.64;100107.00;10223914;23;19955;-76
2022/11/27 08:32:56;;;;;;;;;;;;;;;5.31;97.26;100092.59;10246054;23;19944;-76
2022/11/27 08:36:57;;;;;;;;;;;;;;;5.33;97.38;100090.06;10260150;23;20305;-75
2022/11/27 08:41:00;;;;;;;;;;;;;;;5.39;97.56;100085.09;10276727;23;19924;-75
2022/11/27 08:45:03;;;;;;;;;;;;;;;5.44;97.09;100080.94;10291735;23;19920;-75
2022/11/27 08:49:04;;;;;;;;;;;;;;;5.41;96.46;100081.72;10220733;23;19991;-75
2022/11/27 08:53:05;;;;;;;;;;;;;;;5.39;96.00;100092.81;10196881;23;19951;-75
2022/11/27 08:57:07;;;;;;;;;;;;;;;5.36;95.33;100103.00;10223158;23;20023;-74
2022/11/27 09:01:18;;;;;;;;;;;;;;;5.40;94.95;100103.16;10213994;23;20799;-74
2022/11/27 09:05:20;;;;;;;;;;;;;;;5.50;95.10;100103.41;10217941;23;19980;-75
2022/11/27 09:09:21;;;;;;;;;;;;;;;5.52;95.07;100094.00;10245119;23;19935;-75
2022/11/27 09:13:22;;;;;;;;;;;;;;;5.58;95.47;100091.63;10195882;23;19924;-75
2022/11/27 09:17:24;;;;;;;;;;;;;;;5.58;94.56;100104.50;10222386;23;19975;-75
2022/11/27 09:21:26;;;;;;;;;;;;;;;5.65;94.42;100108.97;10196168;23;19959;-74
2022/11/27 09:25:28;;;;;;;;;;;;;;;5.66;94.10;100108.13;10220196;23;19924;-74
2022/11/27 09:29:29;;;;;;;;;;;;;;;5.70;94.51;100099.66;10221554;23;20347;-74
2022/11/27 09:33:31;;;;;;;;;;;;;;;5.76;94.23;100079.22;10216240;23;19925;-74
2022/11/27 09:37:33;;;;;;;;;;;;;;;5.83;94.77;100068.22;10220182;23;19952;-74
2022/11/27 09:41:40;;;;;;;;;;;;;;;5.90;94.19;100066.69;10221666;23;20613;-75
2022/11/27 09:45:48;;;;;;;;;;;;;;;5.99;93.96;100048.88;10220210;23;19964;-75
2022/11/27 09:50:22;;;;;;;;;;;;;;;6.10;93.88;100039.69;10236267;23;19951;-75
2022/11/27 09:54:24;;;;;;;;;;;;;;;6.18;92.94;100038.19;10156588;23;19928;-76
2022/11/27 09:58:35;;;;;;;;;;;;;;;6.31;93.21;100042.78;10234858;23;19928;-75
2022/11/27 10:02:36;;;;;;;;;;;;;;;6.39;92.70;100061.00;10236714;23;19925;-75
2022/11/27 10:06:44;;;;;;;;;;;;;;;6.34;91.03;100050.59;10237740;23;19925;-75
2022/11/27 10:11:02;;;;;;;;;;;;;;;6.42;91.13;100037.00;10230986;23;19982;-75
2022/11/27 10:15:09;;;;;;;;;;;;;;;6.51;90.96;100029.47;10230221;23;19924;-75
2022/11/27 10:19:21;;;;;;;;;;;;;;;6.60;90.99;100035.69;10229510;23;19928;-75
2022/11/27 10:23:25;;;;;;;;;;;;;;;6.69;90.12;100031.59;10235683;23;19959;-75
2022/11/27 10:27:31;;;;;;;;;;;;;;;6.78;90.00;100018.84;10210817;23;19924;-76
2022/11/27 10:31:33;;;;;;;;;;;;;;;6.84;89.30;100021.59;10233807;23;19924;-75
2022/11/27 10:35:34;;;;;;;;;;;;;;;6.90;89.01;100027.72;10235184;23;19959;-75
2022/11/27 10:39:41;;;;;;;;;;;;;;;6.92;88.28;100000.25;10237158;23;19924;-75
2022/11/27 10:43:43;;;;;;;;;;;;;;;7.03;88.71;99982.38;10258798;23;19920;-75
2022/11/27 10:47:47;;;;;;;;;;;;;;;7.13;88.04;99978.25;10221056;23;19971;-75
2022/11/27 10:51:49;;;;;;;;;;;;;;;7.24;87.61;99980.19;10220157;23;19928;-75
2022/11/27 10:55:53;;;;;;;;;;;;;;;7.34;86.93;99980.34;10220933;23;20497;-75
2022/11/27 11:00:04;;;;;;;;;;;;;;;7.40;86.35;99973.59;10218257;23;20002;-75
2022/11/27 11:04:07;;;;;;;;;;;;;;;7.43;86.05;99965.03;10233493;23;19978;-75
2022/11/27 11:08:28;;;;;;;;;;;;;;;7.45;85.42;99946.13;10240009;23;19932;-75
2022/11/27 11:12:30;;;;;;;;;;;;;;;7.51;85.68;99942.75;10237774;23;19984;-75
2022/11/27 11:16:40;;;;;;;;;;;;;;;7.53;84.40;99939.34;10259116;23;19924;-75
2022/11/27 11:20:43;;;;;;;;;;;;;;;7.62;84.02;99922.28;10233427;23;20346;-76
2022/11/27 11:24:52;;;;;;;;;;;;;;;7.74;84.83;99906.97;10236856;23;19924;-75
2022/11/27 11:28:54;;;;;;;;;;;;;;;7.87;84.26;99895.94;10213497;23;19924;-76
2022/11/27 11:33:01;;;;;;;;;;;;;;;7.88;82.87;99884.75;10205766;23;20235;-76
2022/11/27 11:37:06;;;;;;;;;;;;;;;7.80;81.62;99894.13;10227464;23;19935;-74
2022/11/27 11:41:08;;;;;;;;;;;;;;;7.81;82.50;99886.41;10219308;23;19990;-74
2022/11/27 11:45:09;;;;;;;;;;;;;;;7.85;83.22;99880.41;10205834;23;20341;-76
2022/11/27 11:49:17;;;;;;;;;;;;;;;7.92;83.08;99865.00;10229360;23;20142;-76
2022/11/27 11:53:37;;;;;;;;;;;;;;;7.95;82.92;99871.09;10211978;23;19928;-76
2022/11/27 11:58:01;;;;;;;;;;;;;;;7.99;82.18;99857.34;10258935;23;19924;-76
2022/11/27 12:02:21;;;;;;;;;;;;;;;8.06;82.08;99853.97;10289217;23;20342;-77
2022/11/27 12:06:36;;;;;;;;;;;;;;;8.13;82.45;99853.22;10265875;23;19925;-76
2022/11/27 12:10:47;;;;;;;;;;;;;;;8.21;81.92;99842.09;10236335;23;19927;-76
2022/11/27 12:14:54;;;;;;;;;;;;;;;8.28;80.86;99831.00;10211728;23;19935;-76
2022/11/27 12:19:14;;;;;;;;;;;;;;;8.38;81.13;99831.13;10229806;23;20003;-76
2022/11/27 12:23:34;;;;;;;;;;;;;;;8.51;80.95;99815.75;10238984;23;19924;-77
2022/11/27 12:28:05;;;;;;;;;;;;;;;8.59;81.16;99809.78;10232178;23;19920;-77
2022/11/27 12:32:09;;;;;;;;;;;;;;;8.67;80.28;99802.97;10134914;23;19931;-78
2022/11/27 12:36:29;;;;;;;;;;;;;;;8.71;80.14;99788.34;10266974;23;19916;-77
2022/11/27 12:40:36;;;;;;;;;;;;;;;8.72;79.50;99772.81;10266559;23;19931;-77
2022/11/27 12:44:46;;;;;;;;;;;;;;;8.75;79.80;99761.63;10264287;23;19948;-76
2022/11/27 12:49:10;;;;;;;;;;;;;;;8.77;79.32;99752.13;10216710;23;19924;-76
2022/11/27 12:53:15;;;;;;;;;;;;;;;8.85;79.49;99731.50;10149006;23;19968;-76
2022/11/27 12:57:37;;;;;;;;;;;;;;;8.80;79.49;99715.94;10217614;23;20012;-79
2022/11/27 13:01:44;;;;;;;;;;;;;;;8.83;79.39;99707.31;10224757;23;20426;-76
2022/11/27 13:05:52;;;;;;;;;;;;;;;8.76;78.82;99690.84;10255808;23;19920;-76
2022/11/27 13:10:01;;;;;;;;;;;;;;;8.77;79.60;99685.69;10255577;23;19924;-79
2022/11/27 13:14:10;;;;;;;;;;;;;;;8.76;79.11;99670.16;10258518;23;19920;-77
2022/11/27 13:18:13;;;;;;;;;;;;;;;8.73;79.47;99670.13;10251352;23;20010;-77
2022/11/27 13:22:26;;;;;;;;;;;;;;;8.68;79.53;99670.09;10228509;23;19944;-77
2022/11/27 13:26:37;;;;;;;;;;;;;;;8.64;79.38;99647.66;10279358;23;19924;-76
2022/11/27 13:30:39;;;;;;;;;;;;;;;8.58;79.95;99631.19;10251804;23;19924;-77
2022/11/27 13:34:42;;;;;;;;;;;;;;;8.55;80.43;99633.75;10262047;23;19920;-75
2022/11/27 13:38:44;;;;;;;;;;;;;;;8.50;80.48;99617.34;10264854;23;19970;-78
2022/11/27 13:42:48;;;;;;;;;;;;;;;8.44;80.54;99605.22;10265142;23;19936;-78
2022/11/27 13:46:53;;;;;;;;;;;;;;;8.39;80.22;99591.38;10263471;23;19935;-76
2022/11/27 13:50:55;;;;;;;;;;;;;;;8.34;80.13;99603.41;10264448;23;19924;-77
2022/11/27 13:55:01;;;;;;;;;;;;;;;8.30;80.25;99601.63;10267072;23;19931;-77
2022/11/27 13:59:19;;;;;;;;;;;;;;;8.26;81.31;99600.75;10263406;23;19940;-77
2022/11/27 14:03:28;;;;;;;;;;;;;;;8.22;81.43;99601.53;10221102;23;20011;-77
2022/11/27 14:07:44;;;;;;;;;;;;;;;8.16;80.41;99610.13;10197363;23;20109;-76
2022/11/27 14:11:46;;;;;;;;;;;;;;;8.11;79.23;99624.75;10222057;23;19931;-77
2022/11/27 14:16:00;;;;;;;;;;;;;;;8.10;79.98;99611.81;10201483;23;19952;-76
2022/11/27 14:20:19;;;;;;;;;;;;;;;8.08;80.23;99618.69;10247597;23;19980;-77
2022/11/27 14:24:24;;;;;;;;;;;;;;;8.04;80.78;99624.66;10226276;23;19943;-76
2022/11/27 14:28:26;;;;;;;;;;;;;;;7.99;79.36;99632.38;10251253;23;19920;-76
2022/11/27 14:32:33;;;;;;;;;;;;;;;7.96;79.15;99626.31;10234801;23;19924;-75
2022/11/27 14:36:35;;;;;;;;;;;;;;;7.93;78.48;99618.53;10222784;23;19924;-76
2022/11/27 14:40:36;;;;;;;;;;;;;;;7.91;79.88;99615.06;10196647;23;20375;-75
2022/11/27 14:44:38;;;;;;;;;;;;;;;7.87;81.66;99609.84;10198464;23;19956;-76
2022/11/27 14:48:44;;;;;;;;;;;;;;;7.84;81.33;99608.97;10216717;23;19924;-76
2022/11/27 14:52:53;;;;;;;;;;;;;;;7.80;82.71;99613.22;10221554;23;19924;-76
2022/11/27 14:56:56;;;;;;;;;;;;;;;7.79;83.52;99608.06;10223337;23;19925;-75
2022/11/27 15:01:00;;;;;;;;;;;;;;;7.75;83.87;99598.53;10190247;23;19924;-76
2022/11/27 15:05:04;;;;;;;;;;;;;;;7.73;82.92;99595.06;10222768;23;19925;-75
2022/11/27 15:09:05;;;;;;;;;;;;;;;7.76;82.00;99589.94;10229616;23;19924;-75
2022/11/27 15:13:28;;;;;;;;;;;;;;;7.72;83.82;99586.47;10236008;23;19940;-76
2022/11/27 15:17:31;;;;;;;;;;;;;;;7.70;82.53;99579.50;10224295;23;19936;-77
2022/11/27 15:21:35;;;;;;;;;;;;;;;7.70;81.74;99559.69;10218707;23;20065;-77
2022/11/27 15:25:39;;;;;;;;;;;;;;;7.68;81.95;99545.91;10220830;23;19924;-75
2022/11/27 15:29:59;;;;;;;;;;;;;;;7.65;82.81;99545.00;10220086;23;19924;-74
2022/11/27 15:34:05;;;;;;;;;;;;;;;7.63;83.63;99537.25;10223248;23;19932;-75
2022/11/27 15:38:08;;;;;;;;;;;;;;;7.56;84.90;99528.59;10227565;23;19923;-74
2022/11/27 15:42:10;;;;;;;;;;;;;;;7.53;84.27;99507.84;10199907;23;19959;-75
2022/11/27 15:46:13;;;;;;;;;;;;;;;7.53;84.55;99492.34;10193099;23;20003;-75
2022/11/27 15:50:15;;;;;;;;;;;;;;;7.48;83.06;99526.75;10220509;23;19924;-75
2022/11/27 15:54:17;;;;;;;;;;;;;;;7.48;82.77;99522.47;10221970;23;19920;-74
2022/11/27 15:58:19;;;;;;;;;;;;;;;7.46;83.35;99529.34;10221675;23;20900;-75
2022/11/27 16:02:21;;;;;;;;;;;;;;;7.45;82.93;99521.56;10219455;23;20002;-75
2022/11/27 16:06:23;;;;;;;;;;;;;;;7.42;82.59;99534.47;10223437;23;19990;-75
2022/11/27 16:10:24;;;;;;;;;;;;;;;7.40;83.01;99511.19;10225186;23;19990;-75
2022/11/27 16:14:29;;;;;;;;;;;;;;;7.37;84.55;99510.31;10226453;23;19964;-75
2022/11/27 16:18:31;;;;;;;;;;;;;;;7.34;85.71;99510.25;10225518;23;19924;-75
2022/11/27 16:22:35;;;;;;;;;;;;;;;7.35;85.59;99506.81;10227355;23;19963;-75
2022/11/27 16:26:37;;;;;;;;;;;;;;;7.30;86.48;99493.84;10226480;23;19920;-75
2022/11/27 16:30:38;;;;;;;;;;;;;;;7.30;85.43;99487.81;10219228;23;19999;-76
2022/11/27 16:34:40;;;;;;;;;;;;;;;7.32;85.36;99466.31;10194609;23;20541;-75
2022/11/27 16:38:42;;;;;;;;;;;;;;;7.29;86.11;99468.88;10220121;23;19924;-75
2022/11/27 16:42:43;;;;;;;;;;;;;;;7.30;84.78;99456.84;10222595;23;19924;-75
2022/11/27 16:46:49;;;;;;;;;;;;;;;7.32;85.57;99435.34;10238194;23;19924;-76
2022/11/27 16:50:59;;;;;;;;;;;;;;;7.32;86.66;99439.63;10223262;23;19986;-74
2022/11/27 16:55:01;;;;;;;;;;;;;;;7.30;86.82;99418.09;10222741;23;19925;-75
2022/11/27 16:59:05;;;;;;;;;;;;;;;7.27;86.73;99422.38;10221649;23;19924;-75
2022/11/27 17:03:07;;;;;;;;;;;;;;;7.30;86.50;99420.69;10218491;23;20018;-76
2022/11/27 17:07:09;;;;;;;;;;;;;;;7.28;86.97;99423.25;10223164;23;19932;-75
2022/11/27 17:11:11;;;;;;;;;;;;;;;7.26;86.77;99412.91;10195810;23;19925;-75
2022/11/27 17:15:13;;;;;;;;;;;;;;;7.23;87.26;99397.38;10222492;23;19925;-76
2022/11/27 17:19:14;;;;;;;;;;;;;;;7.22;87.17;99380.16;10227626;23;19924;-75
2022/11/27 17:23:15;;;;;;;;;;;;;;;7.22;87.76;99380.16;10226498;23;19963;-75
2022/11/27 17:27:17;;;;;;;;;;;;;;;7.21;88.38;99378.44;10224015;23;20027;-75
2022/11/27 17:31:20;;;;;;;;;;;;;;;7.20;88.35;99361.22;10221098;23;20292;-75
2022/11/27 17:35:21;;;;;;;;;;;;;;;7.19;88.46;99356.03;10199159;23;19924;-75
2022/11/27 17:39:24;;;;;;;;;;;;;;;7.15;88.19;99343.94;10226067;23;20185;-76
2022/11/27 17:43:26;;;;;;;;;;;;;;;7.10;88.25;99340.47;10228601;23;20006;-76
2022/11/27 17:47:28;;;;;;;;;;;;;;;7.06;88.19;99351.63;10223402;23;19978;-76
2022/11/27 17:51:31;;;;;;;;;;;;;;;7.03;88.22;99349.88;10230360;23;19924;-77
2022/11/27 17:55:33;;;;;;;;;;;;;;;6.97;88.52;99342.06;10231606;23;19949;-76
2022/11/27 17:59:34;;;;;;;;;;;;;;;6.88;88.47;99348.00;10204803;23;19964;-76
2022/11/27 18:03:35;;;;;;;;;;;;;;;6.82;88.47;99340.22;10232784;23;19924;-76
2022/11/27 18:07:36;;;;;;;;;;;;;;;6.81;89.27;99328.13;10228216;23;19987;-77
2022/11/27 18:11:38;;;;;;;;;;;;;;;6.79;89.85;99328.97;10205111;23;19935;-76
2022/11/27 18:15:41;;;;;;;;;;;;;;;6.75;90.17;99322.94;10200198;23;19969;-77
2022/11/27 18:19:42;;;;;;;;;;;;;;;6.64;89.37;99317.69;10228561;23;19924;-76
2022/11/27 18:23:46;;;;;;;;;;;;;;;6.59;90.14;99309.00;10229036;23;19944;-76
2022/11/27 18:28:07;;;;;;;;;;;;;;;6.55;90.68;99314.13;10228869;23;19928;-76
2022/11/27 18:32:09;;;;;;;;;;;;;;;6.48;90.38;99314.94;10223456;23;19930;-76
2022/11/27 18:36:11;;;;;;;;;;;;;;;6.41;90.57;99302.78;10227938;23;20304;-76
2022/11/27 18:40:12;;;;;;;;;;;;;;;6.30;90.66;99300.97;10226516;23;19936;-76
2022/11/27 18:44:14;;;;;;;;;;;;;;;6.20;91.20;99295.69;10202083;23;19977;-76
2022/11/27 18:48:15;;;;;;;;;;;;;;;6.13;91.14;99301.63;10217509;23;19925;-76
2022/11/27 18:52:16;;;;;;;;;;;;;;;6.07;91.15;99298.13;10201498;23;19935;-76
2022/11/27 18:56:19;;;;;;;;;;;;;;;6.04;91.98;99297.22;10202821;23;20814;-76
2022/11/27 19:00:21;;;;;;;;;;;;;;;5.99;91.94;99291.16;10221884;23;19935;-76
2022/11/27 19:04:23;;;;;;;;;;;;;;;5.90;92.03;99285.88;10204010;23;19958;-76
2022/11/27 19:08:24;;;;;;;;;;;;;;;5.78;92.22;99293.44;10228174;23;19929;-76
2022/11/27 19:12:26;;;;;;;;;;;;;;;5.77;93.05;99282.25;10227492;23;19962;-76
2022/11/27 19:16:31;;;;;;;;;;;;;;;5.73;92.98;99278.75;10223231;23;20315;-76
2022/11/27 19:20:36;;;;;;;;;;;;;;;5.63;92.91;99282.06;10225615;23;19964;-77
2022/11/27 19:24:38;;;;;;;;;;;;;;;5.64;93.81;99283.81;10229715;23;19935;-77
2022/11/27 19:28:39;;;;;;;;;;;;;;;5.66;93.92;99283.81;10226838;23;19924;-77
2022/11/27 19:32:41;;;;;;;;;;;;;;;5.63;94.08;99287.22;10219528;23;20007;-77
2022/11/27 19:36:43;;;;;;;;;;;;;;;5.64;94.45;99286.38;10202249;23;19934;-77
2022/11/27 19:40:44;;;;;;;;;;;;;;;5.62;94.87;99269.19;10226985;23;19924;-78
2022/11/27 19:44:45;;;;;;;;;;;;;;;5.60;94.76;99281.16;10227812;23;19923;-78
2022/11/27 19:48:46;;;;;;;;;;;;;;;5.63;94.81;99274.34;10216761;23;19981;-77
2022/11/27 19:52:48;;;;;;;;;;;;;;;5.59;94.86;99270.00;10227907;23;19932;-77
2022/11/27 19:56:49;;;;;;;;;;;;;;;5.56;95.16;99261.34;10227702;23;19979;-77
2022/11/27 20:00:51;;;;;;;;;;;;;;;5.51;95.13;99239.81;10219921;23;19954;-77
2022/11/27 20:04:52;;;;;;;;;;;;;;;5.54;95.60;99237.28;10225651;23;19920;-77
2022/11/27 20:08:57;;;;;;;;;;;;;;;5.53;95.73;99231.28;10224450;23;19973;-77
2022/11/27 20:13:00;;;;;;;;;;;;;;;5.45;95.63;99230.31;10227644;23;20410;-77
2022/11/27 20:17:01;;;;;;;;;;;;;;;5.38;95.05;99229.34;10221360;23;19928;-77
2022/11/27 20:21:07;;;;;;;;;;;;;;;5.36;95.77;99212.16;10250086;23;19924;-77
2022/11/27 20:25:09;;;;;;;;;;;;;;;5.32;96.08;99216.41;10225320;23;20253;-76
2022/11/27 20:29:20;;;;;;;;;;;;;;;5.29;95.83;99226.66;10202595;23;20299;-76
2022/11/27 20:33:22;;;;;;;;;;;;;;;5.30;96.08;99223.25;10219197;23;19920;-77
2022/11/27 20:37:24;;;;;;;;;;;;;;;5.31;96.32;99224.97;10251608;23;19951;-77
2022/11/27 20:41:25;;;;;;;;;;;;;;;5.31;96.26;99224.97;10225310;23;19920;-77
2022/11/27 20:45:26;;;;;;;;;;;;;;;5.32;96.59;99226.72;10222757;23;19932;-77
2022/11/27 20:49:28;;;;;;;;;;;;;;;5.36;96.87;99219.88;10198871;23;19924;-77
2022/11/27 20:53:29;;;;;;;;;;;;;;;5.35;96.78;99213.88;10226303;23;19928;-77
2022/11/27 20:57:31;;;;;;;;;;;;;;;5.37;96.70;99213.88;10228198;23;19921;-77
2022/11/27 21:01:34;;;;;;;;;;;;;;;5.34;97.21;99208.69;10227731;23;20380;-77